createdAt,value
2019-05-23T00:02:51.396Z,91.20
2019-05-23T00:05:40.734Z,91.10
2019-05-23T00:08:30.053Z,91.20
2019-05-23T00:11:18.926Z,91.20
2019-05-23T00:14:20.579Z,91.20
2019-05-23T00:16:51.932Z,91.30
2019-05-23T00:19:21.814Z,91.30
2019-05-23T00:21:53.026Z,91.30
2019-05-23T00:24:23.992Z,91.40
2019-05-23T00:26:54.516Z,91.50
2019-05-23T00:29:25.845Z,91.50
2019-05-23T00:31:57.285Z,91.50
2019-05-23T00:34:29.304Z,91.60
2019-05-23T00:36:59.838Z,91.70
2019-05-23T00:39:31.297Z,91.90
2019-05-23T00:42:01.134Z,91.80
2019-05-23T00:44:31.902Z,91.90
2019-05-23T00:47:02.143Z,91.90
2019-05-23T00:49:32.033Z,91.90
2019-05-23T00:52:01.832Z,91.80
2019-05-23T00:54:31.860Z,91.70
2019-05-23T00:57:02.249Z,91.50
2019-05-23T00:59:32.982Z,91.40
2019-05-23T01:02:02.992Z,91.10
2019-05-23T01:04:34.260Z,90.90
2019-05-23T01:07:04.154Z,90.80
2019-05-23T01:09:35.297Z,90.60
2019-05-23T01:12:05.885Z,90.60
2019-05-23T01:14:36.182Z,90.70
2019-05-23T01:17:07.388Z,90.70
2019-05-23T01:19:37.253Z,90.50
2019-05-23T01:22:14.756Z,90.60
2019-05-23T01:24:48.498Z,90.60
2019-05-23T01:27:19.238Z,90.60
2019-05-23T01:29:50.320Z,90.60
2019-05-23T01:32:22.108Z,90.60
2019-05-23T01:34:52.918Z,90.80
2019-05-23T01:37:24.680Z,90.70
2019-05-23T01:39:55.487Z,90.70
2019-05-23T01:42:25.767Z,90.70
2019-05-23T01:44:55.629Z,90.70
2019-05-23T01:47:26.198Z,90.80
2019-05-23T01:49:56.749Z,90.80
2019-05-23T01:52:26.541Z,90.80
2019-05-23T01:54:56.802Z,91.10
2019-05-23T01:57:26.741Z,90.90
2019-05-23T02:00:08.941Z,91.10
2019-05-23T02:02:30.404Z,91.20
2019-05-23T02:05:00.538Z,91.20
2019-05-23T02:07:30.830Z,91.20
2019-05-23T02:10:00.837Z,91.40
2019-05-23T02:12:31.576Z,91.50
2019-05-23T02:15:03.472Z,91.60
2019-05-23T02:17:33.501Z,91.70
2019-05-23T02:20:04.247Z,91.70
2019-05-23T02:22:34.276Z,91.70
2019-05-23T02:25:08.011Z,91.60
2019-05-23T02:27:40.114Z,91.60
2019-05-23T02:30:32.114Z,91.60
2019-05-23T02:32:45.437Z,91.60
2019-05-23T02:35:15.701Z,91.80
2019-05-23T02:37:47.205Z,91.80
2019-05-23T02:40:22.342Z,91.90
2019-05-23T02:42:56.797Z,92.00
2019-05-23T02:45:45.970Z,92.00
2019-05-23T02:48:18.645Z,92.20
2019-05-23T02:50:55.157Z,92.20
2019-05-23T02:53:28.023Z,92.30
2019-05-23T02:56:01.538Z,92.30
2019-05-23T02:58:38.711Z,92.40
2019-05-23T03:01:18.563Z,92.40
2019-05-23T03:03:49.999Z,92.40
2019-05-23T03:06:22.081Z,92.50
2019-05-23T03:08:52.343Z,92.50
2019-05-23T03:11:32.721Z,92.40
2019-05-23T03:14:04.623Z,92.50
2019-05-23T03:16:38.434Z,92.50
2019-05-23T03:19:15.885Z,92.50
2019-05-23T03:21:48.117Z,92.50
2019-05-23T03:24:19.042Z,92.50
2019-05-23T03:27:01.433Z,92.50
2019-05-23T03:29:33.421Z,92.50
2019-05-23T03:32:05.834Z,92.50
2019-05-23T03:34:37.289Z,92.60
2019-05-23T03:37:09.885Z,92.60
2019-05-23T03:39:41.392Z,92.50
2019-05-23T03:42:12.584Z,92.50
2019-05-23T03:44:44.937Z,92.50
2019-05-23T03:47:16.411Z,92.50
2019-05-23T03:49:48.149Z,92.50
2019-05-23T03:52:19.113Z,92.50
2019-05-23T03:54:50.327Z,92.90
2019-05-23T03:57:25.311Z,92.50
2019-05-23T03:59:53.873Z,92.50
2019-05-23T04:02:25.385Z,92.50
2019-05-23T04:04:57.319Z,92.60
2019-05-23T04:07:29.060Z,92.60
2019-05-23T04:09:58.937Z,92.50
2019-05-23T04:12:29.091Z,92.60
2019-05-23T04:14:59.376Z,92.60
2019-05-23T04:17:29.439Z,92.70
2019-05-23T04:19:59.303Z,92.70
2019-05-23T04:22:29.947Z,92.80
2019-05-23T04:25:02.197Z,92.80
2019-05-23T04:27:31.490Z,92.80
2019-05-23T04:30:01.367Z,92.90
2019-05-23T04:32:32.069Z,92.80
2019-05-23T04:35:01.935Z,92.80
2019-05-23T04:37:32.290Z,93.00
2019-05-23T04:40:02.348Z,93.00
2019-05-23T04:42:32.718Z,93.00
2019-05-23T04:45:03.249Z,93.30
2019-05-23T04:47:33.283Z,92.80
2019-05-23T04:50:04.018Z,92.70
2019-05-23T04:52:33.989Z,92.70
2019-05-23T04:55:04.696Z,92.70
2019-05-23T04:57:34.499Z,92.70
2019-05-23T05:00:12.425Z,92.80
2019-05-23T05:02:43.253Z,92.80
2019-05-23T05:05:13.678Z,92.70
2019-05-23T05:07:44.100Z,92.80
2019-05-23T05:10:17.620Z,92.70
2019-05-23T05:12:47.780Z,92.60
2019-05-23T05:15:17.823Z,92.60
2019-05-23T05:17:48.275Z,92.50
2019-05-23T05:20:18.413Z,92.80
2019-05-23T05:22:48.357Z,92.30
2019-05-23T05:25:20.730Z,92.30
2019-05-23T05:27:50.884Z,92.20
2019-05-23T05:30:21.730Z,92.20
2019-05-23T05:32:51.536Z,92.30
2019-05-23T05:35:21.403Z,92.20
2019-05-23T05:37:51.208Z,92.30
2019-05-23T05:40:21.063Z,91.60
2019-05-23T05:42:51.655Z,91.50
2019-05-23T05:45:21.952Z,91.60
2019-05-23T05:47:51.765Z,91.80
2019-05-23T05:50:22.283Z,91.80
2019-05-23T05:52:52.100Z,92.00
2019-05-23T05:55:22.271Z,92.20
2019-05-23T05:57:52.226Z,92.20
2019-05-23T06:00:27.295Z,92.20
2019-05-23T06:03:04.405Z,92.20
2019-05-23T06:05:41.463Z,92.20
2019-05-23T06:08:12.719Z,92.20
2019-05-23T06:10:43.147Z,92.00
2019-05-23T06:13:13.032Z,92.10
2019-05-23T06:15:44.749Z,92.00
2019-05-23T06:18:14.539Z,91.70
2019-05-23T06:20:46.557Z,91.70
2019-05-23T06:23:17.551Z,91.90
2019-05-23T06:25:47.371Z,92.00
2019-05-23T06:28:18.884Z,92.10
2019-05-23T06:30:50.119Z,92.20
2019-05-23T06:33:23.615Z,92.20
2019-05-23T06:35:52.736Z,92.20
2019-05-23T06:38:23.074Z,92.20
2019-05-23T06:40:54.635Z,92.10
2019-05-23T06:43:25.008Z,92.00
2019-05-23T06:45:54.909Z,92.00
2019-05-23T06:48:25.208Z,91.90
2019-05-23T06:50:56.063Z,91.60
2019-05-23T06:53:25.848Z,91.80
2019-05-23T06:55:55.731Z,91.50
2019-05-23T06:58:26.076Z,91.40
2019-05-23T07:00:56.011Z,91.10
2019-05-23T07:03:41.876Z,91.10
2019-05-23T07:05:58.672Z,91.10
2019-05-23T07:08:30.256Z,91.40
2019-05-23T07:11:00.125Z,91.00
2019-05-23T07:13:31.561Z,91.00
2019-05-23T07:16:01.653Z,90.80
2019-05-23T07:18:31.535Z,90.60
2019-05-23T07:21:01.421Z,90.60
2019-05-23T07:23:31.293Z,90.50
2019-05-23T07:26:01.091Z,90.20
2019-05-23T07:28:31.032Z,90.40
2019-05-23T07:31:01.203Z,90.30
2019-05-23T07:33:31.011Z,90.20
2019-05-23T07:36:00.799Z,90.10
2019-05-23T07:38:30.593Z,89.50
2019-05-23T07:41:00.588Z,88.90
2019-05-23T07:43:30.925Z,88.50
2019-05-23T07:46:01.849Z,88.50
2019-05-23T07:48:33.267Z,88.40
2019-05-23T07:51:03.089Z,88.50
2019-05-23T07:53:34.600Z,88.00
2019-05-23T07:56:06.477Z,87.10
2019-05-23T07:58:36.336Z,87.60
2019-05-23T08:01:10.775Z,86.70
2019-05-23T08:03:41.237Z,86.80
2019-05-23T08:06:11.874Z,86.60
2019-05-23T08:08:42.272Z,86.70
2019-05-23T08:11:12.138Z,86.40
2019-05-23T08:13:42.471Z,86.50
2019-05-23T08:16:12.921Z,86.40
2019-05-23T08:18:42.880Z,86.40
2019-05-23T08:21:12.837Z,86.10
2019-05-23T08:23:42.729Z,86.10
2019-05-23T08:26:12.972Z,86.50
2019-05-23T08:29:11.467Z,86.60
2019-05-23T08:31:15.051Z,85.80
2019-05-23T08:33:44.873Z,85.70
2019-05-23T08:36:15.669Z,85.20
2019-05-23T08:38:45.474Z,85.10
2019-05-23T08:41:15.338Z,84.60
2019-05-23T08:43:45.226Z,83.70
2019-05-23T08:46:16.874Z,82.20
2019-05-23T08:48:46.871Z,81.80
2019-05-23T08:51:17.581Z,81.40
2019-05-23T08:53:47.456Z,81.80
2019-05-23T08:56:19.756Z,82.40
2019-05-23T08:58:49.683Z,79.90
2019-05-23T09:01:19.753Z,79.90
2019-05-23T09:03:49.831Z,79.80
2019-05-23T09:06:20.065Z,79.50
2019-05-23T09:08:51.738Z,78.70
2019-05-23T09:11:21.897Z,78.70
2019-05-23T09:13:52.455Z,78.10
2019-05-23T09:16:22.308Z,78.70
2019-05-23T09:18:52.189Z,77.60
2019-05-23T09:21:22.223Z,76.30
2019-05-23T09:23:52.101Z,73.00
2019-05-23T09:26:23.433Z,73.20
2019-05-23T09:28:53.269Z,73.10
2019-05-23T09:31:23.909Z,72.10
2019-05-23T09:33:53.792Z,72.40
2019-05-23T09:36:23.581Z,72.10
2019-05-23T09:38:53.384Z,73.30
2019-05-23T09:41:23.184Z,73.30
2019-05-23T09:43:53.056Z,72.30
2019-05-23T09:46:22.934Z,71.20
2019-05-23T09:48:53.286Z,71.50
2019-05-23T09:51:23.226Z,71.00
2019-05-23T09:53:53.031Z,71.00
2019-05-23T09:56:22.824Z,70.70
2019-05-23T09:58:52.718Z,71.20
2019-05-23T10:01:23.728Z,70.20
2019-05-23T10:03:53.785Z,70.00
2019-05-23T10:06:23.586Z,68.70
2019-05-23T10:08:54.879Z,67.50
2019-05-23T10:11:26.445Z,67.00
2019-05-23T10:13:58.800Z,67.70
2019-05-23T10:16:29.228Z,66.80
2019-05-23T10:18:59.608Z,67.40
2019-05-23T10:21:32.195Z,66.80
2019-05-23T10:24:05.316Z,68.10
2019-05-23T10:26:35.116Z,64.60
2019-05-23T10:29:05.186Z,63.80
2019-05-23T10:31:35.069Z,63.70
2019-05-23T10:34:04.920Z,63.80
2019-05-23T10:36:34.751Z,64.50
2019-05-23T10:39:07.590Z,64.30
2019-05-23T10:41:37.400Z,64.60
2019-05-23T10:44:07.197Z,63.40
2019-05-23T10:46:37.124Z,63.10
2019-05-23T10:49:06.999Z,62.60
2019-05-23T10:51:36.800Z,64.00
2019-05-23T10:54:07.102Z,62.90
2019-05-23T10:56:37.421Z,64.40
2019-05-23T10:59:07.359Z,63.20
2019-05-23T11:01:37.409Z,62.90
2019-05-23T11:04:07.260Z,62.30
2019-05-23T11:06:37.053Z,63.00
2019-05-23T11:09:09.282Z,62.90
2019-05-23T11:11:39.633Z,63.90
2019-05-23T11:14:09.856Z,63.90
2019-05-23T11:16:40.511Z,63.90
2019-05-23T11:19:11.076Z,62.70
2019-05-23T11:21:40.875Z,64.80
2019-05-23T11:24:10.828Z,62.20
2019-05-23T11:26:40.767Z,63.00
2019-05-23T11:29:10.569Z,62.50
2019-05-23T11:31:40.441Z,61.80
2019-05-23T11:34:10.393Z,60.10
2019-05-23T11:36:40.163Z,60.60
2019-05-23T11:39:10.746Z,60.70
2019-05-23T11:41:40.691Z,61.00
2019-05-23T11:44:10.554Z,60.10
2019-05-23T11:46:40.808Z,60.50
2019-05-23T11:49:10.641Z,60.40
2019-05-23T11:51:40.567Z,60.70
2019-05-23T11:54:10.888Z,61.00
2019-05-23T11:56:41.540Z,59.10
2019-05-23T11:59:11.404Z,59.60
2019-05-23T12:01:57.893Z,59.50
2019-05-23T12:04:28.237Z,59.20
2019-05-23T12:06:59.911Z,59.20
2019-05-23T12:09:29.778Z,59.80
2019-05-23T12:11:59.564Z,60.50
2019-05-23T12:14:30.491Z,58.40
2019-05-23T12:17:00.544Z,57.50
2019-05-23T12:19:30.346Z,57.40
2019-05-23T12:22:00.301Z,59.30
2019-05-23T12:24:34.802Z,59.40
2019-05-23T12:27:01.775Z,59.10
2019-05-23T12:29:31.565Z,57.90
2019-05-23T12:32:01.413Z,57.60
2019-05-23T12:34:31.252Z,57.80
2019-05-23T12:37:18.630Z,58.00
2019-05-23T12:39:32.656Z,57.50
2019-05-23T12:42:02.473Z,57.00
2019-05-23T12:44:32.280Z,56.30
2019-05-23T12:47:03.271Z,57.00
2019-05-23T12:49:34.711Z,56.20
2019-05-23T12:52:05.800Z,56.20
2019-05-23T12:54:35.673Z,55.00
2019-05-23T12:57:05.658Z,54.40
2019-05-23T12:59:36.820Z,54.20
2019-05-23T13:02:08.311Z,53.10
2019-05-23T13:04:38.179Z,53.80
2019-05-23T13:07:08.203Z,53.50
2019-05-23T13:09:38.664Z,53.90
2019-05-23T13:12:08.455Z,54.80
2019-05-23T13:14:38.603Z,54.40
2019-05-23T13:17:08.383Z,54.90
2019-05-23T13:19:38.187Z,54.50
2019-05-23T13:22:09.297Z,53.90
2019-05-23T13:24:51.903Z,54.60
2019-05-23T13:27:10.719Z,55.50
2019-05-23T13:29:40.597Z,56.00
2019-05-23T13:32:10.449Z,55.10
2019-05-23T13:34:40.303Z,55.70
2019-05-23T13:37:16.631Z,55.70
2019-05-23T13:39:43.600Z,54.80
2019-05-23T13:42:13.440Z,54.00
2019-05-23T13:44:43.383Z,54.10
2019-05-23T13:47:13.230Z,54.10
2019-05-23T13:49:43.310Z,54.80
2019-05-23T13:52:13.259Z,54.00
2019-05-23T13:54:44.229Z,54.40
2019-05-23T13:57:14.896Z,54.80
2019-05-23T13:59:44.856Z,54.50
2019-05-23T14:02:15.786Z,54.50
2019-05-23T14:04:45.640Z,55.20
2019-05-23T14:07:16.395Z,54.20
2019-05-23T14:09:46.258Z,53.90
2019-05-23T14:12:21.633Z,53.20
2019-05-23T14:14:48.694Z,53.40
2019-05-23T14:17:20.137Z,54.10
2019-05-23T14:19:50.191Z,54.70
2019-05-23T14:22:20.516Z,53.80
2019-05-23T14:24:52.270Z,52.20
2019-05-23T14:27:23.801Z,53.20
2019-05-23T14:29:53.656Z,52.00
2019-05-23T14:32:34.360Z,51.90
2019-05-23T14:35:06.108Z,53.40
2019-05-23T14:37:37.675Z,51.00
2019-05-23T14:40:09.312Z,50.30
2019-05-23T14:42:52.916Z,51.60
2019-05-23T14:45:41.526Z,52.70
2019-05-23T14:48:13.340Z,54.40
2019-05-23T14:51:00.346Z,52.70
2019-05-23T14:53:47.924Z,52.20
2019-05-23T14:56:18.544Z,52.20
2019-05-23T14:58:48.410Z,50.70
2019-05-23T15:01:18.323Z,50.90
2019-05-23T15:03:48.177Z,51.20
2019-05-23T15:06:18.724Z,51.80
2019-05-23T15:08:51.538Z,48.60
2019-05-23T15:11:20.172Z,48.60
2019-05-23T15:13:50.038Z,47.90
2019-05-23T15:16:20.099Z,47.30
2019-05-23T15:18:49.964Z,47.10
2019-05-23T15:21:19.841Z,48.30
2019-05-23T15:23:49.692Z,48.60
2019-05-23T15:26:23.551Z,47.80
2019-05-23T15:28:51.134Z,46.90
2019-05-23T15:31:23.548Z,46.10
2019-05-23T15:33:53.403Z,42.20
2019-05-23T15:36:23.621Z,42.80
2019-05-23T15:39:08.260Z,43.00
2019-05-23T15:41:24.963Z,40.70
2019-05-23T15:43:55.212Z,39.40
2019-05-23T15:46:25.385Z,36.50
2019-05-23T15:48:55.164Z,37.90
2019-05-23T15:51:26.752Z,38.90
2019-05-23T15:54:04.192Z,41.00
2019-05-23T15:56:45.752Z,41.00
2019-05-23T15:59:20.615Z,43.70
2019-05-23T16:01:55.185Z,44.10
2019-05-23T16:04:25.623Z,42.90
2019-05-23T16:06:56.627Z,44.00
2019-05-23T16:09:30.267Z,44.00
2019-05-23T16:11:59.090Z,43.90
2019-05-23T16:14:29.190Z,43.30
2019-05-23T16:16:59.115Z,44.80
2019-05-23T16:19:28.968Z,44.10
2019-05-23T16:21:58.838Z,45.20
2019-05-23T16:24:28.676Z,45.50
2019-05-23T16:26:58.629Z,45.90
2019-05-23T16:29:28.487Z,45.90
2019-05-23T16:31:58.489Z,44.30
2019-05-23T16:34:28.907Z,42.80
2019-05-23T16:36:58.687Z,44.90
2019-05-23T16:39:45.441Z,47.30
2019-05-23T16:42:00.765Z,45.80
2019-05-23T16:44:30.637Z,45.30
2019-05-23T16:47:00.611Z,46.60
2019-05-23T16:49:30.427Z,45.10
2019-05-23T16:52:00.196Z,45.20
2019-05-23T16:54:31.708Z,45.20
2019-05-23T16:57:03.213Z,43.80
2019-05-23T16:59:34.921Z,43.20
2019-05-23T17:02:09.807Z,43.20
2019-05-23T17:04:41.401Z,44.20
2019-05-23T17:07:13.569Z,44.10
2019-05-23T17:09:45.193Z,46.20
2019-05-23T17:12:22.200Z,45.70
2019-05-23T17:15:08.619Z,46.20
2019-05-23T17:18:02.982Z,46.70
2019-05-23T17:20:47.687Z,45.40
2019-05-23T17:23:37.792Z,44.50
2019-05-23T17:26:11.973Z,42.70
2019-05-23T17:28:43.402Z,43.50
2019-05-23T17:31:14.899Z,44.30
2019-05-23T17:33:46.434Z,44.80
2019-05-23T17:36:16.763Z,44.00
2019-05-23T17:38:46.549Z,42.90
2019-05-23T17:41:16.887Z,43.00
2019-05-23T17:43:46.677Z,41.30
2019-05-23T17:46:16.523Z,41.70
2019-05-23T17:48:46.307Z,41.70
2019-05-23T17:51:16.225Z,42.60
2019-05-23T17:53:46.128Z,43.90
2019-05-23T17:56:15.962Z,43.00
2019-05-23T17:58:45.916Z,43.90
2019-05-23T18:01:16.435Z,43.30
2019-05-23T18:03:46.259Z,43.60
2019-05-23T18:06:16.461Z,43.30
2019-05-23T18:08:46.414Z,43.10
2019-05-23T18:11:16.336Z,43.30
2019-05-23T18:13:46.150Z,43.90
2019-05-23T18:16:18.062Z,45.40
2019-05-23T18:18:48.199Z,45.00
2019-05-23T18:21:19.476Z,45.20
2019-05-23T18:23:51.882Z,45.30
2019-05-23T18:26:21.698Z,45.50
2019-05-23T18:28:52.032Z,44.60
2019-05-23T18:31:23.456Z,44.80
2019-05-23T18:33:53.346Z,44.70
2019-05-23T18:36:23.250Z,45.60
2019-05-23T18:38:53.667Z,46.00
2019-05-23T18:41:24.398Z,46.40
2019-05-23T18:43:54.945Z,46.70
2019-05-23T18:46:29.378Z,47.10
2019-05-23T18:48:59.184Z,47.70
2019-05-23T18:51:29.770Z,48.00
2019-05-23T18:53:59.552Z,48.20
2019-05-23T18:56:29.505Z,48.70
2019-05-23T18:58:59.589Z,49.00
2019-05-23T19:01:29.712Z,49.60
2019-05-23T19:04:00.073Z,49.40
2019-05-23T19:06:30.262Z,49.40
2019-05-23T19:09:00.136Z,50.10
2019-05-23T19:11:30.293Z,50.20
2019-05-23T19:14:00.639Z,50.80
2019-05-23T19:16:31.531Z,51.30
2019-05-23T19:19:05.456Z,51.30
2019-05-23T19:21:40.004Z,51.50
2019-05-23T19:24:11.014Z,52.20
2019-05-23T19:26:41.341Z,52.10
2019-05-23T19:29:12.004Z,52.30
2019-05-23T19:31:42.604Z,53.20
2019-05-23T19:34:12.896Z,53.70
2019-05-23T19:36:42.899Z,53.90
2019-05-23T19:39:13.020Z,53.80
2019-05-23T19:41:43.029Z,54.40
2019-05-23T19:44:12.908Z,54.50
2019-05-23T19:46:44.611Z,55.20
2019-05-23T19:49:14.932Z,55.40
2019-05-23T19:51:45.192Z,55.20
2019-05-23T19:54:15.413Z,55.70
2019-05-23T19:56:45.264Z,56.40
2019-05-23T19:59:15.081Z,55.60
2019-05-23T20:01:46.520Z,56.40
2019-05-23T20:04:17.609Z,55.90
2019-05-23T20:06:47.730Z,56.10
2019-05-23T20:09:19.448Z,55.70
2019-05-23T20:11:54.162Z,56.50
2019-05-23T20:14:21.966Z,56.90
2019-05-23T20:16:51.912Z,57.50
2019-05-23T20:19:21.854Z,57.60
2019-05-23T20:21:51.715Z,56.60
2019-05-23T20:24:21.574Z,56.60
2019-05-23T20:26:51.439Z,57.80
2019-05-23T20:29:21.288Z,57.50
2019-05-23T20:31:52.263Z,57.70
2019-05-23T20:34:22.171Z,58.10
2019-05-23T20:36:52.037Z,58.70
2019-05-23T20:39:22.687Z,58.60
2019-05-23T20:41:53.049Z,59.10
2019-05-23T20:44:23.010Z,58.70
2019-05-23T20:46:52.826Z,58.90
2019-05-23T20:49:27.022Z,59.00
2019-05-23T20:51:55.489Z,59.40
2019-05-23T20:54:25.284Z,60.10
2019-05-23T20:56:55.083Z,60.20
2019-05-23T20:59:24.859Z,60.20
2019-05-23T21:01:54.657Z,60.40
2019-05-23T21:04:24.440Z,60.20
2019-05-23T21:06:54.243Z,60.00
2019-05-23T21:09:24.404Z,60.00
2019-05-23T21:11:54.195Z,60.20
2019-05-23T21:14:24.187Z,60.60
2019-05-23T21:16:53.983Z,60.70
2019-05-23T21:19:23.852Z,60.70
2019-05-23T21:21:53.815Z,60.50
2019-05-23T21:24:23.626Z,60.30
2019-05-23T21:26:53.442Z,60.20
2019-05-23T21:29:23.231Z,60.20
2019-05-23T21:31:53.036Z,60.60
2019-05-23T21:34:22.876Z,60.60
2019-05-23T21:36:52.685Z,60.40
2019-05-23T21:39:22.534Z,60.50
2019-05-23T21:41:52.336Z,60.80
2019-05-23T21:44:22.119Z,60.80
2019-05-23T21:46:52.039Z,61.50
2019-05-23T21:49:21.904Z,61.50
2019-05-23T21:51:52.111Z,61.20
2019-05-23T21:54:22.100Z,61.00
2019-05-23T21:56:51.886Z,61.40
2019-05-23T21:59:21.751Z,61.80
2019-05-23T22:01:58.981Z,61.90
2019-05-23T22:04:30.606Z,62.30
2019-05-23T22:07:01.052Z,62.50
2019-05-23T22:09:31.075Z,62.50
2019-05-23T22:12:01.204Z,62.70
2019-05-23T22:14:31.194Z,63.30
2019-05-23T22:17:01.065Z,63.60
2019-05-23T22:19:31.990Z,63.90
2019-05-23T22:22:01.783Z,64.60
2019-05-23T22:24:31.585Z,64.50
2019-05-23T22:27:01.751Z,64.90
2019-05-23T22:29:31.669Z,64.90
2019-05-23T22:32:02.771Z,65.10
2019-05-23T22:34:43.523Z,65.20
2019-05-23T22:37:17.911Z,65.50
2019-05-23T22:39:47.776Z,65.80
2019-05-23T22:42:18.830Z,66.20
2019-05-23T22:44:48.791Z,66.80
2019-05-23T22:47:18.812Z,66.40
2019-05-23T22:49:48.663Z,66.10
2019-05-23T22:52:18.464Z,65.90
2019-05-23T22:54:48.238Z,66.20
2019-05-23T22:57:18.108Z,65.10
2019-05-23T22:59:48.880Z,65.30
2019-05-23T23:02:19.116Z,65.10
2019-05-23T23:04:48.907Z,65.20
2019-05-23T23:07:18.976Z,65.30
2019-05-23T23:09:49.030Z,65.60
2019-05-23T23:12:18.907Z,66.50
2019-05-23T23:14:48.803Z,66.70
2019-05-23T23:17:20.038Z,66.60
2019-05-23T23:19:49.947Z,66.80
2019-05-23T23:22:19.759Z,67.80
2019-05-23T23:24:49.532Z,67.90
2019-05-23T23:27:19.327Z,68.30
2019-05-23T23:29:49.475Z,68.30
2019-05-23T23:32:19.308Z,68.40
2019-05-23T23:34:49.111Z,68.50
2019-05-23T23:37:18.936Z,68.40
2019-05-23T23:39:48.795Z,68.60
2019-05-23T23:42:18.639Z,68.80
2019-05-23T23:44:47.764Z,68.80
2019-05-23T23:47:35.105Z,69.60
2019-05-23T23:50:25.706Z,69.80
2019-05-23T23:53:13.887Z,70.80
2019-05-23T23:56:02.318Z,71.20
2019-05-23T23:58:31.408Z,70.90
